createdAt,value
2022-10-25T00:00:41.583Z,16.30
2022-10-25T00:03:10.799Z,16.30
2022-10-25T00:05:39.755Z,16.30
2022-10-25T00:08:07.404Z,16.20
2022-10-25T00:10:35.825Z,16.20
2022-10-25T00:13:03.767Z,16.20
2022-10-25T00:15:30.996Z,16.20
2022-10-25T00:17:58.418Z,16.20
2022-10-25T00:20:25.739Z,16.10
2022-10-25T00:22:53.063Z,16.10
2022-10-25T00:25:20.450Z,16.10
2022-10-25T00:27:47.664Z,16.10
2022-10-25T00:30:15.006Z,16.10
2022-10-25T00:32:42.312Z,16.10
2022-10-25T00:35:10.148Z,16.00
2022-10-25T00:37:37.517Z,16.00
2022-10-25T00:40:05.458Z,16.00
2022-10-25T00:42:32.670Z,16.00
2022-10-25T00:45:04.024Z,16.00
2022-10-25T00:48:09.349Z,16.00
2022-10-25T00:50:50.692Z,16.00
2022-10-25T00:53:24.746Z,16.00
2022-10-25T00:55:59.280Z,16.00
2022-10-25T00:58:28.600Z,15.90
2022-10-25T01:00:56.793Z,15.90
2022-10-25T01:03:25.281Z,15.90
2022-10-25T01:05:53.567Z,15.90
2022-10-25T01:08:21.899Z,15.90
2022-10-25T01:10:50.163Z,15.90
2022-10-25T01:13:17.577Z,15.90
2022-10-25T01:16:11.178Z,15.90
2022-10-25T01:19:10.336Z,15.90
2022-10-25T01:21:51.145Z,15.80
2022-10-25T01:25:00.848Z,15.80
2022-10-25T01:27:53.868Z,15.80
2022-10-25T01:30:53.435Z,15.80
2022-10-25T01:33:34.765Z,15.80
2022-10-25T01:36:29.655Z,15.70
2022-10-25T01:39:10.340Z,15.70
2022-10-25T01:41:43.349Z,15.70
2022-10-25T01:44:48.382Z,15.70
2022-10-25T01:47:23.847Z,15.70
2022-10-25T01:49:58.086Z,15.70
2022-10-25T01:52:25.605Z,15.70
2022-10-25T01:54:52.824Z,15.70
2022-10-25T01:57:49.755Z,15.70
2022-10-25T02:00:20.048Z,15.70
2022-10-25T02:03:05.757Z,15.70
2022-10-25T02:05:48.688Z,15.60
2022-10-25T02:08:24.824Z,15.60
2022-10-25T02:11:09.248Z,15.60
2022-10-25T02:13:56.668Z,15.60
2022-10-25T02:16:31.930Z,15.60
2022-10-25T02:19:04.791Z,15.60
2022-10-25T02:21:34.835Z,15.60
2022-10-25T02:24:09.344Z,15.60
2022-10-25T02:26:37.932Z,15.60
2022-10-25T02:29:07.096Z,15.60
2022-10-25T02:31:36.286Z,15.60
2022-10-25T02:34:04.573Z,15.60
2022-10-25T02:36:31.795Z,15.50
2022-10-25T02:39:00.009Z,15.50
2022-10-25T02:41:27.269Z,15.50
2022-10-25T02:43:54.559Z,15.50
2022-10-25T02:46:23.224Z,15.50
2022-10-25T02:48:51.010Z,15.50
2022-10-25T02:51:19.110Z,15.50
2022-10-25T02:53:46.719Z,15.50
2022-10-25T02:56:17.845Z,15.50
2022-10-25T02:58:46.527Z,15.50
2022-10-25T03:01:15.090Z,15.50
2022-10-25T03:03:42.798Z,15.50
2022-10-25T03:06:10.575Z,15.50
2022-10-25T03:08:39.225Z,15.50
2022-10-25T03:11:07.639Z,15.50
2022-10-25T03:13:35.013Z,15.50
2022-10-25T03:16:02.563Z,15.60
2022-10-25T03:18:30.332Z,15.50
2022-10-25T03:20:59.156Z,15.60
2022-10-25T03:23:26.942Z,15.60
2022-10-25T03:25:55.310Z,15.60
2022-10-25T03:28:22.978Z,15.60
2022-10-25T03:30:50.284Z,15.60
2022-10-25T03:33:17.567Z,15.60
2022-10-25T03:35:44.941Z,15.60
2022-10-25T03:38:12.135Z,15.60
2022-10-25T03:40:39.363Z,15.60
2022-10-25T03:43:06.606Z,15.60
2022-10-25T03:45:33.808Z,15.60
2022-10-25T03:48:01.046Z,15.60
2022-10-25T03:50:28.256Z,15.70
2022-10-25T03:52:55.491Z,15.70
2022-10-25T03:55:22.886Z,15.70
2022-10-25T03:57:50.129Z,15.70
2022-10-25T04:00:17.639Z,15.70
2022-10-25T04:02:44.989Z,15.70
2022-10-25T04:05:12.205Z,15.70
2022-10-25T04:07:39.517Z,15.70
2022-10-25T04:10:07.237Z,15.70
2022-10-25T04:12:34.517Z,15.70
2022-10-25T04:15:01.824Z,15.70
2022-10-25T04:17:29.099Z,15.70
2022-10-25T04:19:56.308Z,15.70
2022-10-25T04:22:23.533Z,15.70
2022-10-25T04:24:50.722Z,15.60
2022-10-25T04:27:17.953Z,15.60
2022-10-25T04:29:45.176Z,15.60
2022-10-25T04:32:12.449Z,15.60
2022-10-25T04:34:39.748Z,15.60
2022-10-25T04:37:06.980Z,15.60
2022-10-25T04:39:34.263Z,15.60
2022-10-25T04:42:01.511Z,15.60
2022-10-25T04:44:28.793Z,15.60
2022-10-25T04:46:56.002Z,15.60
2022-10-25T04:49:23.176Z,15.50
2022-10-25T04:54:18.515Z,15.50
2022-10-25T04:56:45.692Z,15.50
2022-10-25T04:59:13.041Z,15.60
2022-10-25T05:01:40.394Z,15.50
2022-10-25T05:04:07.817Z,15.50
2022-10-25T05:06:35.140Z,15.50
2022-10-25T05:09:03.853Z,15.50
2022-10-25T05:11:31.177Z,15.50
2022-10-25T05:13:58.508Z,15.50
2022-10-25T05:16:26.469Z,15.50
2022-10-25T05:18:55.453Z,15.50
2022-10-25T05:21:30.288Z,15.50
2022-10-25T05:24:01.508Z,15.40
2022-10-25T05:26:30.897Z,15.40
2022-10-25T05:28:58.493Z,15.40
2022-10-25T05:31:28.309Z,15.40
2022-10-25T05:34:00.803Z,15.40
2022-10-25T05:36:29.437Z,15.40
2022-10-25T05:38:58.101Z,15.40
2022-10-25T05:41:25.333Z,15.40
2022-10-25T05:43:52.658Z,15.40
2022-10-25T05:46:23.967Z,15.40
2022-10-25T05:48:51.612Z,15.30
2022-10-25T05:51:33.154Z,15.30
2022-10-25T05:54:13.226Z,15.30
2022-10-25T05:56:41.624Z,15.20
2022-10-25T05:59:14.302Z,15.20
2022-10-25T06:01:44.604Z,15.20
2022-10-25T06:04:12.865Z,15.20
2022-10-25T06:06:41.457Z,15.10
2022-10-25T06:09:09.779Z,15.20
2022-10-25T06:11:38.229Z,15.10
2022-10-25T06:14:06.201Z,15.10
2022-10-25T06:16:33.561Z,15.10
2022-10-25T06:19:00.789Z,15.10
2022-10-25T06:21:29.529Z,15.00
2022-10-25T06:23:59.279Z,15.00
2022-10-25T06:26:29.400Z,15.00
2022-10-25T06:28:59.486Z,15.00
2022-10-25T06:31:27.915Z,15.00
2022-10-25T06:33:55.205Z,15.00
2022-10-25T06:36:24.375Z,15.00
2022-10-25T06:38:51.836Z,15.00
2022-10-25T06:41:24.623Z,14.90
2022-10-25T06:43:52.240Z,15.00
2022-10-25T06:49:26.824Z,15.00
2022-10-25T06:51:54.252Z,15.00
2022-10-25T06:54:21.712Z,15.00
2022-10-25T06:56:48.987Z,15.00
2022-10-25T06:59:16.219Z,15.10
2022-10-25T07:01:43.702Z,15.10
2022-10-25T07:04:11.055Z,15.10
2022-10-25T07:06:38.567Z,15.10
2022-10-25T07:09:08.669Z,15.10
2022-10-25T07:11:35.920Z,15.10
2022-10-25T07:14:04.604Z,15.10
2022-10-25T07:16:32.072Z,15.10
2022-10-25T07:19:00.853Z,15.10
2022-10-25T07:21:29.652Z,15.10
2022-10-25T07:23:57.270Z,15.20
2022-10-25T07:26:33.286Z,15.10
2022-10-25T07:29:02.166Z,15.20
2022-10-25T07:31:36.193Z,15.20
2022-10-25T07:34:05.052Z,15.20
2022-10-25T07:36:32.582Z,15.20
2022-10-25T07:39:00.712Z,15.20
2022-10-25T07:41:28.078Z,15.30
2022-10-25T07:43:55.478Z,15.30
2022-10-25T07:46:23.158Z,15.30
2022-10-25T07:48:52.392Z,15.30
2022-10-25T07:51:19.810Z,15.30
2022-10-25T07:53:47.483Z,15.30
2022-10-25T07:56:20.458Z,15.30
2022-10-25T07:58:54.021Z,15.40
2022-10-25T08:01:24.069Z,15.40
2022-10-25T08:03:52.696Z,15.40
2022-10-25T08:06:24.414Z,15.50
2022-10-25T08:08:52.025Z,15.60
2022-10-25T08:11:19.336Z,15.70
2022-10-25T08:13:50.077Z,15.70
2022-10-25T08:16:17.857Z,15.80
2022-10-25T08:18:45.212Z,15.80
2022-10-25T08:21:12.695Z,15.80
2022-10-25T08:23:39.983Z,15.90
2022-10-25T08:26:07.284Z,15.90
2022-10-25T08:28:34.608Z,16.00
2022-10-25T08:31:02.099Z,16.10
2022-10-25T08:33:29.854Z,16.10
2022-10-25T08:36:00.873Z,16.20
2022-10-25T08:38:28.393Z,16.20
2022-10-25T08:41:22.008Z,16.30
2022-10-25T08:44:11.936Z,16.30
2022-10-25T08:46:54.349Z,16.30
2022-10-25T08:49:35.419Z,16.40
2022-10-25T08:52:06.995Z,16.40
2022-10-25T08:54:42.216Z,16.40
2022-10-25T08:57:18.464Z,16.40
2022-10-25T08:59:54.383Z,16.50
2022-10-25T09:02:48.648Z,16.50
2022-10-25T09:05:37.958Z,16.50
2022-10-25T09:08:07.892Z,16.50
2022-10-25T09:11:00.621Z,16.50
2022-10-25T09:13:42.805Z,16.50
2022-10-25T09:16:17.785Z,16.50
2022-10-25T09:18:54.051Z,16.50
2022-10-25T09:21:39.574Z,16.50
2022-10-25T09:24:45.234Z,16.60
2022-10-25T09:27:18.637Z,16.60
2022-10-25T09:30:06.568Z,16.70
2022-10-25T09:32:46.372Z,16.70
2022-10-25T09:35:18.420Z,16.80
2022-10-25T09:38:08.437Z,16.90
2022-10-25T09:40:48.162Z,16.90
2022-10-25T09:43:19.912Z,17.00
2022-10-25T09:45:56.864Z,17.00
2022-10-25T09:48:48.948Z,17.00
2022-10-25T09:51:41.175Z,17.00
2022-10-25T09:54:18.942Z,17.00
2022-10-25T09:56:46.166Z,17.00
2022-10-25T09:59:15.702Z,17.00
2022-10-25T10:01:43.425Z,17.00
2022-10-25T10:04:27.325Z,17.00
2022-10-25T10:06:59.094Z,17.00
2022-10-25T10:09:30.862Z,17.00
2022-10-25T10:12:00.897Z,17.00
2022-10-25T10:14:39.502Z,17.00
2022-10-25T10:17:13.731Z,17.00
2022-10-25T10:19:41.527Z,17.00
2022-10-25T10:22:14.090Z,17.10
2022-10-25T10:24:43.624Z,17.10
2022-10-25T10:27:23.390Z,17.10
2022-10-25T10:29:50.562Z,17.10
2022-10-25T10:32:27.124Z,17.10
2022-10-25T10:34:57.050Z,17.10
2022-10-25T10:37:29.471Z,17.10
2022-10-25T10:40:00.847Z,17.10
2022-10-25T10:42:34.711Z,17.10
2022-10-25T10:45:08.384Z,17.20
2022-10-25T10:47:51.138Z,17.20
2022-10-25T10:50:24.464Z,17.30
2022-10-25T10:53:02.535Z,17.40
2022-10-25T10:55:53.757Z,17.40
2022-10-25T10:58:34.226Z,17.40
2022-10-25T11:01:05.923Z,17.50
2022-10-25T11:03:48.987Z,17.50
2022-10-25T11:06:32.411Z,17.60
2022-10-25T11:09:19.266Z,17.60
2022-10-25T11:12:10.877Z,17.70
2022-10-25T11:14:38.397Z,17.70
2022-10-25T11:17:19.811Z,17.70
2022-10-25T11:19:56.978Z,17.80
2022-10-25T11:22:32.846Z,17.90
2022-10-25T11:25:12.741Z,17.90
2022-10-25T11:28:11.763Z,18.00
2022-10-25T11:31:05.390Z,18.00
2022-10-25T11:34:11.805Z,18.00
2022-10-25T11:36:52.423Z,18.10
2022-10-25T11:39:36.296Z,18.20
2022-10-25T11:42:27.668Z,18.20
2022-10-25T11:45:36.784Z,18.30
2022-10-25T11:48:28.911Z,18.30
2022-10-25T11:51:14.783Z,18.40
2022-10-25T11:54:17.269Z,18.40
2022-10-25T11:57:22.269Z,18.40
2022-10-25T11:59:49.663Z,18.40
2022-10-25T12:02:38.489Z,18.50
2022-10-25T12:05:37.611Z,18.50
2022-10-25T12:08:29.174Z,18.50
2022-10-25T12:11:17.927Z,18.40
2022-10-25T12:13:51.290Z,18.40
2022-10-25T12:16:21.931Z,18.40
2022-10-25T12:19:14.263Z,18.40
2022-10-25T12:21:59.327Z,18.40
2022-10-25T12:24:42.160Z,18.40
2022-10-25T12:27:11.607Z,18.40
2022-10-25T12:29:46.237Z,18.40
2022-10-25T12:32:25.144Z,18.40
2022-10-25T12:34:54.343Z,18.50
2022-10-25T12:37:40.138Z,18.50
2022-10-25T12:40:16.738Z,18.60
2022-10-25T12:42:50.945Z,18.60
2022-10-25T12:45:57.529Z,18.70
2022-10-25T12:48:28.851Z,18.80
2022-10-25T12:51:01.916Z,18.80
2022-10-25T12:54:04.706Z,18.80
2022-10-25T12:56:50.696Z,18.80
2022-10-25T12:59:44.491Z,18.80
2022-10-25T13:02:45.943Z,18.90
2022-10-25T13:05:25.437Z,18.90
2022-10-25T13:07:57.017Z,19.00
2022-10-25T13:13:05.304Z,19.10
2022-10-25T13:16:00.496Z,19.10
2022-10-25T13:18:44.707Z,19.10
2022-10-25T13:21:17.616Z,19.20
2022-10-25T13:23:51.434Z,19.20
2022-10-25T13:26:30.649Z,19.20
2022-10-25T13:29:42.777Z,19.10
2022-10-25T13:32:18.383Z,19.10
2022-10-25T13:34:46.327Z,19.00
2022-10-25T13:37:31.941Z,19.00
2022-10-25T13:40:19.387Z,19.00
2022-10-25T13:42:48.539Z,19.00
2022-10-25T13:45:33.380Z,19.00
2022-10-25T13:48:15.981Z,19.00
2022-10-25T13:51:01.859Z,19.10
2022-10-25T13:53:34.629Z,19.10
2022-10-25T13:56:17.130Z,19.00
2022-10-25T13:58:55.963Z,19.00
2022-10-25T14:01:24.822Z,19.00
2022-10-25T14:04:32.567Z,19.00
2022-10-25T14:07:37.378Z,19.00
2022-10-25T14:10:06.480Z,19.00
2022-10-25T14:12:34.350Z,19.00
2022-10-25T14:15:26.010Z,19.10
2022-10-25T14:17:53.480Z,19.10
2022-10-25T14:20:32.432Z,19.10
2022-10-25T14:23:03.151Z,19.00
2022-10-25T14:25:35.313Z,19.00
2022-10-25T14:28:20.641Z,19.00
2022-10-25T14:30:50.288Z,18.90
2022-10-25T14:33:47.940Z,18.90
2022-10-25T14:36:36.534Z,19.00
2022-10-25T14:39:50.713Z,19.00
2022-10-25T14:42:18.284Z,19.00
2022-10-25T14:44:50.135Z,19.00
2022-10-25T14:47:32.527Z,18.90
2022-10-25T14:50:01.250Z,18.90
2022-10-25T14:52:30.835Z,18.90
2022-10-25T14:55:01.980Z,18.90
2022-10-25T14:57:30.225Z,18.90
2022-10-25T15:00:03.539Z,18.80
2022-10-25T15:02:35.240Z,18.80
2022-10-25T15:05:04.041Z,18.70
2022-10-25T15:07:39.855Z,18.70
2022-10-25T15:10:36.803Z,18.60
2022-10-25T15:13:06.228Z,18.60
2022-10-25T15:15:37.131Z,18.50
2022-10-25T15:18:04.919Z,18.50
2022-10-25T15:20:34.416Z,18.40
2022-10-25T15:23:21.803Z,18.40
2022-10-25T15:25:49.244Z,18.30
2022-10-25T15:28:18.920Z,18.30
2022-10-25T15:30:48.986Z,18.30
2022-10-25T15:33:22.310Z,18.20
2022-10-25T15:36:01.403Z,18.20
2022-10-25T15:38:47.817Z,18.10
2022-10-25T15:41:18.280Z,18.10
2022-10-25T15:43:45.536Z,18.00
2022-10-25T15:46:42.338Z,18.00
2022-10-25T15:49:12.485Z,17.90
2022-10-25T15:51:42.360Z,17.90
2022-10-25T15:54:20.994Z,17.90
2022-10-25T15:56:49.202Z,17.80
2022-10-25T16:01:52.574Z,17.70
2022-10-25T16:04:20.060Z,17.70
2022-10-25T16:06:47.696Z,17.70
2022-10-25T16:09:14.947Z,17.60
2022-10-25T16:11:47.098Z,17.60
2022-10-25T16:14:21.401Z,17.60
2022-10-25T16:16:48.796Z,17.50
2022-10-25T16:19:17.659Z,17.50
2022-10-25T16:21:45.606Z,17.40
2022-10-25T16:24:13.198Z,17.40
2022-10-25T16:26:46.132Z,17.30
2022-10-25T16:29:19.309Z,17.20
2022-10-25T16:31:46.528Z,17.20
2022-10-25T16:34:17.182Z,17.10
2022-10-25T16:36:45.541Z,17.10
2022-10-25T16:39:13.017Z,17.00
2022-10-25T16:41:42.653Z,17.00
2022-10-25T16:44:12.584Z,16.90
2022-10-25T16:46:39.927Z,16.90
2022-10-25T16:49:09.072Z,16.80
2022-10-25T16:51:37.416Z,16.80
2022-10-25T16:54:05.099Z,16.80
2022-10-25T16:56:32.396Z,16.70
2022-10-25T16:59:00.474Z,16.70
2022-10-25T17:01:29.059Z,16.70
2022-10-25T17:03:56.507Z,16.70
2022-10-25T17:09:11.379Z,16.60
2022-10-25T17:11:38.739Z,16.50
2022-10-25T17:14:06.099Z,16.50
2022-10-25T17:16:33.525Z,16.50
2022-10-25T17:19:03.141Z,16.40
2022-10-25T17:21:31.448Z,16.40
2022-10-25T17:23:59.346Z,16.40
2022-10-25T17:26:26.549Z,16.30
2022-10-25T17:28:53.836Z,16.30
2022-10-25T17:31:21.201Z,16.30
2022-10-25T17:33:48.500Z,16.30
2022-10-25T17:36:18.279Z,16.30
2022-10-25T17:38:46.145Z,16.20
2022-10-25T17:41:14.280Z,16.20
2022-10-25T17:43:42.083Z,16.20
2022-10-25T17:46:23.050Z,16.20
2022-10-25T17:48:53.825Z,16.20
2022-10-25T17:51:21.093Z,16.10
2022-10-25T17:53:54.181Z,16.10
2022-10-25T17:56:23.411Z,16.10
2022-10-25T17:58:51.627Z,16.10
2022-10-25T18:01:21.772Z,16.00
2022-10-25T18:03:49.881Z,16.10
2022-10-25T18:06:19.510Z,16.00
2022-10-25T18:08:51.733Z,16.00
2022-10-25T18:11:22.715Z,16.00
2022-10-25T18:13:58.556Z,16.00
2022-10-25T18:16:27.413Z,16.00
2022-10-25T18:18:59.833Z,16.00
2022-10-25T18:21:27.541Z,15.90
2022-10-25T18:23:56.184Z,15.90
2022-10-25T18:26:25.011Z,15.90
2022-10-25T18:28:52.943Z,15.90
2022-10-25T18:31:21.080Z,15.80
2022-10-25T18:33:48.405Z,15.90
2022-10-25T18:36:19.206Z,15.80
2022-10-25T18:38:48.095Z,15.80
2022-10-25T18:41:18.257Z,15.80
2022-10-25T18:43:45.884Z,15.70
2022-10-25T18:46:13.523Z,15.70
2022-10-25T18:48:41.274Z,15.70
2022-10-25T18:51:10.727Z,15.70
2022-10-25T18:53:40.897Z,15.70
2022-10-25T18:56:17.092Z,15.60
2022-10-25T18:58:47.033Z,15.60
2022-10-25T19:01:26.022Z,15.60
2022-10-25T19:03:55.588Z,15.60
2022-10-25T19:06:22.884Z,15.50
2022-10-25T19:08:51.570Z,15.50
2022-10-25T19:11:19.536Z,15.50
2022-10-25T19:13:49.082Z,15.50
2022-10-25T19:16:18.672Z,15.50
2022-10-25T19:18:46.070Z,15.40
2022-10-25T19:21:16.853Z,15.50
2022-10-25T19:23:46.323Z,15.40
2022-10-25T19:26:16.996Z,15.40
2022-10-25T19:28:44.781Z,15.30
2022-10-25T19:31:17.404Z,15.30
2022-10-25T19:33:49.130Z,15.30
2022-10-25T19:36:18.155Z,15.30
2022-10-25T19:38:48.147Z,15.30
2022-10-25T19:41:18.367Z,15.30
2022-10-25T19:43:46.045Z,15.20
2022-10-25T19:46:14.530Z,15.20
2022-10-25T19:48:42.365Z,15.20
2022-10-25T19:51:13.213Z,15.20
2022-10-25T19:53:41.046Z,15.20
2022-10-25T19:56:11.496Z,15.20
2022-10-25T19:58:38.907Z,15.10
2022-10-25T20:01:12.731Z,15.10
2022-10-25T20:03:40.737Z,15.10
2022-10-25T20:06:11.469Z,15.00
2022-10-25T20:08:41.177Z,15.00
2022-10-25T20:11:10.186Z,15.00
2022-10-25T20:13:37.486Z,15.00
2022-10-25T20:16:05.985Z,15.00
2022-10-25T20:18:38.797Z,15.00
2022-10-25T20:21:13.579Z,14.90
2022-10-25T20:23:43.296Z,14.90
2022-10-25T20:26:24.151Z,14.90
2022-10-25T20:28:57.254Z,14.90
2022-10-25T20:31:26.803Z,14.80
2022-10-25T20:33:55.129Z,14.80
2022-10-25T20:36:23.311Z,14.80
2022-10-25T20:38:50.850Z,14.80
2022-10-25T20:41:21.055Z,14.80
2022-10-25T20:43:51.410Z,14.70
2022-10-25T20:46:19.856Z,14.70
2022-10-25T20:48:47.258Z,14.70
2022-10-25T20:51:15.801Z,14.70
2022-10-25T20:53:45.545Z,14.70
2022-10-25T20:56:13.625Z,14.60
2022-10-25T20:58:41.709Z,14.60
2022-10-25T21:01:09.573Z,14.60
2022-10-25T21:03:36.799Z,14.50
2022-10-25T21:06:06.221Z,14.60
2022-10-25T21:08:35.787Z,14.60
2022-10-25T21:11:05.725Z,14.50
2022-10-25T21:13:34.720Z,14.50
2022-10-25T21:16:12.505Z,14.60
2022-10-25T21:18:40.708Z,14.50
2022-10-25T21:21:19.516Z,14.50
2022-10-25T21:23:47.953Z,14.50
2022-10-25T21:26:15.740Z,14.50
2022-10-25T21:28:43.268Z,14.50
2022-10-25T21:31:15.779Z,14.40
2022-10-25T21:33:49.877Z,14.40
2022-10-25T21:36:20.132Z,14.40
2022-10-25T21:38:47.530Z,14.40
2022-10-25T21:41:17.403Z,14.40
2022-10-25T21:43:52.084Z,14.40
2022-10-25T21:46:21.418Z,14.40
2022-10-25T21:48:50.526Z,14.40
2022-10-25T21:51:19.113Z,14.30
2022-10-25T21:53:47.259Z,14.30
2022-10-25T21:56:16.675Z,14.30
2022-10-25T21:58:45.951Z,14.30
2022-10-25T22:01:19.406Z,14.30
2022-10-25T22:03:46.908Z,14.30
2022-10-25T22:06:17.347Z,14.30
2022-10-25T22:08:44.983Z,14.30
2022-10-25T22:11:18.703Z,14.20
2022-10-25T22:13:46.895Z,14.20
2022-10-25T22:16:17.121Z,14.30
2022-10-25T22:18:52.300Z,14.30
2022-10-25T22:21:19.718Z,14.30
2022-10-25T22:23:47.401Z,14.20
2022-10-25T22:26:16.751Z,14.20
2022-10-25T22:28:44.146Z,14.30
2022-10-25T22:31:14.154Z,14.30
2022-10-25T22:33:42.651Z,14.30
2022-10-25T22:36:11.322Z,14.30
2022-10-25T22:38:38.927Z,14.30
2022-10-25T22:41:10.266Z,14.30
2022-10-25T22:43:38.718Z,14.30
2022-10-25T22:46:08.318Z,14.30
2022-10-25T22:48:38.962Z,14.30
2022-10-25T22:51:07.103Z,14.30
2022-10-25T22:53:35.314Z,14.30
2022-10-25T22:56:13.202Z,14.30
2022-10-25T22:58:42.100Z,14.30
2022-10-25T23:01:12.725Z,14.30
2022-10-25T23:03:45.183Z,14.30
2022-10-25T23:06:14.831Z,14.30
2022-10-25T23:08:42.335Z,14.30
2022-10-25T23:11:15.688Z,14.30
2022-10-25T23:13:43.713Z,14.40
2022-10-25T23:16:12.383Z,14.40
2022-10-25T23:18:40.020Z,14.40
2022-10-25T23:21:09.869Z,14.40
2022-10-25T23:23:38.702Z,14.40
2022-10-25T23:28:39.362Z,14.40
2022-10-25T23:31:08.740Z,14.40
2022-10-25T23:33:36.651Z,14.40
2022-10-25T23:36:08.551Z,14.40
2022-10-25T23:38:36.336Z,14.40
2022-10-25T23:41:04.219Z,14.40
2022-10-25T23:43:31.654Z,14.40
2022-10-25T23:45:59.117Z,14.40
2022-10-25T23:48:26.819Z,14.40
2022-10-25T23:50:56.142Z,14.40
2022-10-25T23:53:23.441Z,14.40
2022-10-25T23:55:50.940Z,14.40
2022-10-25T23:58:18.375Z,14.50
